sensor_id;sensor_type;location;lat;lon;timestamp;temperature;humidity
30336;DHT22;17142;47.990;7.846;2023-01-15T00:01:32;13.20;99.90
30336;DHT22;17142;47.990;7.846;2023-01-15T00:03:59;13.20;99.90
30336;DHT22;17142;47.990;7.846;2023-01-15T00:06:26;13.30;99.90
30336;DHT22;17142;47.990;7.846;2023-01-15T00:08:52;13.30;99.90
30336;DHT22;17142;47.990;7.846;2023-01-15T00:11:19;13.30;99.90
30336;DHT22;17142;47.990;7.846;2023-01-15T00:13:45;13.30;99.90
30336;DHT22;17142;47.990;7.846;2023-01-15T00:16:17;13.20;99.90
30336;DHT22;17142;47.990;7.846;2023-01-15T00:18:52;13.20;99.90
30336;DHT22;17142;47.990;7.846;2023-01-15T00:21:18;13.10;99.90
30336;DHT22;17142;47.990;7.846;2023-01-15T00:23:46;12.80;99.90
30336;DHT22;17142;47.990;7.846;2023-01-15T00:26:32;12.70;99.90
30336;DHT22;17142;47.990;7.846;2023-01-15T00:29:17;12.50;99.90
30336;DHT22;17142;47.990;7.846;2023-01-15T00:31:44;12.40;99.90
30336;DHT22;17142;47.990;7.846;2023-01-15T00:34:17;12.20;99.90
30336;DHT22;17142;47.990;7.846;2023-01-15T00:36:47;11.90;99.90
30336;DHT22;17142;47.990;7.846;2023-01-15T00:39:18;11.80;99.90
30336;DHT22;17142;47.990;7.846;2023-01-15T00:41:46;11.70;99.90
30336;DHT22;17142;47.990;7.846;2023-01-15T00:44:14;11.50;99.90
30336;DHT22;17142;47.990;7.846;2023-01-15T00:46:47;11.30;99.90
30336;DHT22;17142;47.990;7.846;2023-01-15T00:49:15;11.20;99.90
30336;DHT22;17142;47.990;7.846;2023-01-15T00:51:40;11.10;99.90
30336;DHT22;17142;47.990;7.846;2023-01-15T00:54:06;11.00;99.90
30336;DHT22;17142;47.990;7.846;2023-01-15T00:56:31;11.00;99.90
30336;DHT22;17142;47.990;7.846;2023-01-15T00:59:03;10.90;99.90
30336;DHT22;17142;47.990;7.846;2023-01-15T01:01:29;11.00;99.90
30336;DHT22;17142;47.990;7.846;2023-01-15T01:04:00;11.00;99.90
30336;DHT22;17142;47.990;7.846;2023-01-15T01:06:25;11.00;99.90
30336;DHT22;17142;47.990;7.846;2023-01-15T01:08:51;11.00;99.90
30336;DHT22;17142;47.990;7.846;2023-01-15T01:11:19;11.00;99.90
30336;DHT22;17142;47.990;7.846;2023-01-15T01:13:46;11.10;99.90
30336;DHT22;17142;47.990;7.846;2023-01-15T01:16:34;11.10;99.90
30336;DHT22;17142;47.990;7.846;2023-01-15T01:19:13;11.10;99.90
30336;DHT22;17142;47.990;7.846;2023-01-15T01:21:41;11.10;99.90
30336;DHT22;17142;47.990;7.846;2023-01-15T01:24:12;11.10;99.90
30336;DHT22;17142;47.990;7.846;2023-01-15T01:26:38;11.20;99.90
30336;DHT22;17142;47.990;7.846;2023-01-15T01:29:04;11.30;99.90
30336;DHT22;17142;47.990;7.846;2023-01-15T01:31:32;11.30;99.90
30336;DHT22;17142;47.990;7.846;2023-01-15T01:34:00;11.30;99.90
30336;DHT22;17142;47.990;7.846;2023-01-15T01:36:31;11.40;99.90
30336;DHT22;17142;47.990;7.846;2023-01-15T01:38:57;11.40;99.90
30336;DHT22;17142;47.990;7.846;2023-01-15T01:41:23;11.50;99.90
30336;DHT22;17142;47.990;7.846;2023-01-15T01:44:07;11.60;99.90
30336;DHT22;17142;47.990;7.846;2023-01-15T01:46:35;11.60;99.90
30336;DHT22;17142;47.990;7.846;2023-01-15T01:49:12;11.70;99.90
30336;DHT22;17142;47.990;7.846;2023-01-15T01:51:46;11.80;99.90
30336;DHT22;17142;47.990;7.846;2023-01-15T01:54:17;11.80;99.90
30336;DHT22;17142;47.990;7.846;2023-01-15T01:56:43;11.80;99.90
30336;DHT22;17142;47.990;7.846;2023-01-15T01:59:10;11.80;99.90
30336;DHT22;17142;47.990;7.846;2023-01-15T02:01:39;11.90;99.90
30336;DHT22;17142;47.990;7.846;2023-01-15T02:04:08;12.00;99.90
30336;DHT22;17142;47.990;7.846;2023-01-15T02:06:35;12.10;99.90
30336;DHT22;17142;47.990;7.846;2023-01-15T02:09:01;12.20;99.90
30336;DHT22;17142;47.990;7.846;2023-01-15T02:11:28;12.30;99.90
30336;DHT22;17142;47.990;7.846;2023-01-15T02:16:35;12.30;99.90
30336;DHT22;17142;47.990;7.846;2023-01-15T02:19:13;12.40;99.90
30336;DHT22;17142;47.990;7.846;2023-01-15T02:21:52;12.50;99.90
30336;DHT22;17142;47.990;7.846;2023-01-15T02:27:28;12.50;99.90
30336;DHT22;17142;47.990;7.846;2023-01-15T02:32:50;12.70;99.90
30336;DHT22;17142;47.990;7.846;2023-01-15T02:35:28;12.70;99.90
30336;DHT22;17142;47.990;7.846;2023-01-15T02:37:58;12.70;99.90
30336;DHT22;17142;47.990;7.846;2023-01-15T02:40:25;12.70;99.90
30336;DHT22;17142;47.990;7.846;2023-01-15T02:42:52;12.80;99.90
30336;DHT22;17142;47.990;7.846;2023-01-15T02:45:28;12.80;99.90
30336;DHT22;17142;47.990;7.846;2023-01-15T02:48:01;12.80;99.90
30336;DHT22;17142;47.990;7.846;2023-01-15T08:07:44;7.20;99.90
30336;DHT22;17142;47.990;7.846;2023-01-15T08:10:11;7.20;99.90
30336;DHT22;17142;47.990;7.846;2023-01-15T08:12:40;7.20;99.90
30336;DHT22;17142;47.990;7.846;2023-01-15T08:15:24;7.10;99.90
30336;DHT22;17142;47.990;7.846;2023-01-15T08:17:51;7.10;99.90
30336;DHT22;17142;47.990;7.846;2023-01-15T08:20:24;7.10;99.90
30336;DHT22;17142;47.990;7.846;2023-01-15T08:22:50;7.10;99.90
30336;DHT22;17142;47.990;7.846;2023-01-15T08:25:20;7.10;99.90
30336;DHT22;17142;47.990;7.846;2023-01-15T08:27:46;7.10;99.90
30336;DHT22;17142;47.990;7.846;2023-01-15T08:30:17;7.10;99.90
30336;DHT22;17142;47.990;7.846;2023-01-15T08:32:45;7.10;99.90
30336;DHT22;17142;47.990;7.846;2023-01-15T08:35:13;7.00;99.90
30336;DHT22;17142;47.990;7.846;2023-01-15T08:37:40;7.10;99.90
30336;DHT22;17142;47.990;7.846;2023-01-15T08:40:06;7.00;99.90
30336;DHT22;17142;47.990;7.846;2023-01-15T08:42:33;7.00;99.90
30336;DHT22;17142;47.990;7.846;2023-01-15T08:44:59;7.00;99.90
30336;DHT22;17142;47.990;7.846;2023-01-15T08:47:25;7.00;99.90
30336;DHT22;17142;47.990;7.846;2023-01-15T08:49:52;7.00;99.90
30336;DHT22;17142;47.990;7.846;2023-01-15T08:52:19;6.90;99.90
30336;DHT22;17142;47.990;7.846;2023-01-15T08:54:47;7.00;99.90
30336;DHT22;17142;47.990;7.846;2023-01-15T08:57:17;6.90;99.90
30336;DHT22;17142;47.990;7.846;2023-01-15T08:59:46;6.90;99.90
30336;DHT22;17142;47.990;7.846;2023-01-15T09:02:14;6.80;99.90
30336;DHT22;17142;47.990;7.846;2023-01-15T09:04:42;6.80;99.90
30336;DHT22;17142;47.990;7.846;2023-01-15T09:07:08;6.70;99.90
30336;DHT22;17142;47.990;7.846;2023-01-15T09:09:38;6.60;99.90
30336;DHT22;17142;47.990;7.846;2023-01-15T09:12:06;6.50;99.90
30336;DHT22;17142;47.990;7.846;2023-01-15T09:14:34;6.40;99.90
30336;DHT22;17142;47.990;7.846;2023-01-15T09:16:59;6.30;99.90
30336;DHT22;17142;47.990;7.846;2023-01-15T09:19:25;6.20;99.90
30336;DHT22;17142;47.990;7.846;2023-01-15T09:21:51;6.20;99.90
30336;DHT22;17142;47.990;7.846;2023-01-15T09:24:16;6.20;99.90
30336;DHT22;17142;47.990;7.846;2023-01-15T09:26:42;6.10;99.90
30336;DHT22;17142;47.990;7.846;2023-01-15T09:29:08;6.10;99.90
30336;DHT22;17142;47.990;7.846;2023-01-15T09:31:35;6.10;99.90
30336;DHT22;17142;47.990;7.846;2023-01-15T09:34:00;6.00;99.90
30336;DHT22;17142;47.990;7.846;2023-01-15T09:36:29;6.00;99.90
30336;DHT22;17142;47.990;7.846;2023-01-15T09:38:56;6.00;99.90
30336;DHT22;17142;47.990;7.846;2023-01-15T09:41:23;6.00;99.90
30336;DHT22;17142;47.990;7.846;2023-01-15T09:47:46;6.00;99.90
30336;DHT22;17142;47.990;7.846;2023-01-15T09:50:23;5.90;99.90
30336;DHT22;17142;47.990;7.846;2023-01-15T09:55:29;5.80;99.90
30336;DHT22;17142;47.990;7.846;2023-01-15T09:58:02;5.70;99.90
30336;DHT22;17142;47.990;7.846;2023-01-15T10:00:34;5.60;99.90
30336;DHT22;17142;47.990;7.846;2023-01-15T10:05:44;5.50;99.90
30336;DHT22;17142;47.990;7.846;2023-01-15T10:08:18;5.50;99.90
30336;DHT22;17142;47.990;7.846;2023-01-15T10:10:47;5.40;99.90
30336;DHT22;17142;47.990;7.846;2023-01-15T10:15:54;5.30;99.90
30336;DHT22;17142;47.990;7.846;2023-01-15T10:18:24;5.30;99.90
30336;DHT22;17142;47.990;7.846;2023-01-15T10:21:18;5.20;99.90
30336;DHT22;17142;47.990;7.846;2023-01-15T10:43:36;5.00;99.90
30336;DHT22;17142;47.990;7.846;2023-01-15T10:46:24;5.00;99.90
30336;DHT22;17142;47.990;7.846;2023-01-15T10:48:58;4.90;99.90
30336;DHT22;17142;47.990;7.846;2023-01-15T10:51:33;4.90;99.90
30336;DHT22;17142;47.990;7.846;2023-01-15T10:56:42;4.90;99.90
30336;DHT22;17142;47.990;7.846;2023-01-15T11:01:54;4.90;99.90
30336;DHT22;17142;47.990;7.846;2023-01-15T11:04:25;4.90;99.90
30336;DHT22;17142;47.990;7.846;2023-01-15T11:06:57;4.90;99.90
30336;DHT22;17142;47.990;7.846;2023-01-15T11:09:26;4.90;99.90
30336;DHT22;17142;47.990;7.846;2023-01-15T11:12:11;4.90;99.90
30336;DHT22;17142;47.990;7.846;2023-01-15T11:14:47;4.90;99.90
30336;DHT22;17142;47.990;7.846;2023-01-15T11:17:35;4.90;99.90
30336;DHT22;17142;47.990;7.846;2023-01-15T11:20:27;5.00;99.90
30336;DHT22;17142;47.990;7.846;2023-01-15T11:22:55;5.00;99.90
30336;DHT22;17142;47.990;7.846;2023-01-15T11:25:29;5.00;99.90
30336;DHT22;17142;47.990;7.846;2023-01-15T11:27:57;5.00;99.90
30336;DHT22;17142;47.990;7.846;2023-01-15T11:30:30;5.00;99.90
30336;DHT22;17142;47.990;7.846;2023-01-15T11:32:59;5.10;99.90
30336;DHT22;17142;47.990;7.846;2023-01-15T11:35:30;5.00;99.90
30336;DHT22;17142;47.990;7.846;2023-01-15T11:38:03;5.00;99.90
30336;DHT22;17142;47.990;7.846;2023-01-15T11:40:29;5.00;99.90
30336;DHT22;17142;47.990;7.846;2023-01-15T11:42:55;5.00;99.90
30336;DHT22;17142;47.990;7.846;2023-01-15T11:45:51;5.00;99.90
30336;DHT22;17142;47.990;7.846;2023-01-15T11:48:46;4.90;99.90
30336;DHT22;17142;47.990;7.846;2023-01-15T11:51:39;4.90;99.90
30336;DHT22;17142;47.990;7.846;2023-01-15T11:54:12;4.90;99.90
30336;DHT22;17142;47.990;7.846;2023-01-15T11:56:43;4.90;99.90
30336;DHT22;17142;47.990;7.846;2023-01-15T11:59:12;4.90;99.90
30336;DHT22;17142;47.990;7.846;2023-01-15T12:01:52;4.90;99.90
30336;DHT22;17142;47.990;7.846;2023-01-15T12:07:14;4.90;99.90
30336;DHT22;17142;47.990;7.846;2023-01-15T12:21:22;4.80;99.90
30336;DHT22;17142;47.990;7.846;2023-01-15T12:27:50;4.80;99.90
30336;DHT22;17142;47.990;7.846;2023-01-15T12:29:59;4.80;99.90
30336;DHT22;17142;47.990;7.846;2023-01-15T12:32:37;4.80;99.90
30336;DHT22;17142;47.990;7.846;2023-01-15T12:35:29;4.80;99.90
30336;DHT22;17142;47.990;7.846;2023-01-15T12:43:23;4.80;99.90
30336;DHT22;17142;47.990;7.846;2023-01-15T12:46:13;4.90;99.90
30336;DHT22;17142;47.990;7.846;2023-01-15T12:51:24;4.90;99.90
30336;DHT22;17142;47.990;7.846;2023-01-15T12:53:56;4.90;99.90
30336;DHT22;17142;47.990;7.846;2023-01-15T13:02:03;4.90;99.90
30336;DHT22;17142;47.990;7.846;2023-01-15T13:04:51;4.90;99.90
30336;DHT22;17142;47.990;7.846;2023-01-15T13:07:40;4.90;99.90
30336;DHT22;17142;47.990;7.846;2023-01-15T13:10:38;4.80;99.90
30336;DHT22;17142;47.990;7.846;2023-01-15T13:13:28;4.80;99.90
30336;DHT22;17142;47.990;7.846;2023-01-15T13:19:00;5.20;99.90
30336;DHT22;17142;47.990;7.846;2023-01-15T13:21:31;5.30;99.90
30336;DHT22;17142;47.990;7.846;2023-01-15T13:24:26;5.10;99.90
30336;DHT22;17142;47.990;7.846;2023-01-15T13:27:16;5.10;99.90
30336;DHT22;17142;47.990;7.846;2023-01-15T13:30:03;5.10;99.90
30336;DHT22;17142;47.990;7.846;2023-01-15T13:32:41;5.30;99.90
30336;DHT22;17142;47.990;7.846;2023-01-15T13:35:31;5.40;99.90
30336;DHT22;17142;47.990;7.846;2023-01-15T13:38:00;5.30;99.90
30336;DHT22;17142;47.990;7.846;2023-01-15T13:40:40;5.30;99.90
30336;DHT22;17142;47.990;7.846;2023-01-15T13:45:49;5.20;99.90
30336;DHT22;17142;47.990;7.846;2023-01-15T13:48:50;5.20;99.90
30336;DHT22;17142;47.990;7.846;2023-01-15T13:51:28;5.20;99.90
30336;DHT22;17142;47.990;7.846;2023-01-15T13:53:55;5.20;99.90
30336;DHT22;17142;47.990;7.846;2023-01-15T13:56:27;5.20;99.90
30336;DHT22;17142;47.990;7.846;2023-01-15T13:58:56;5.20;99.90
30336;DHT22;17142;47.990;7.846;2023-01-15T14:01:33;5.10;99.90
30336;DHT22;17142;47.990;7.846;2023-01-15T14:09:27;5.20;99.90
30336;DHT22;17142;47.990;7.846;2023-01-15T14:15:39;5.30;99.90
30336;DHT22;17142;47.990;7.846;2023-01-15T14:18:56;5.30;99.90
30336;DHT22;17142;47.990;7.846;2023-01-15T14:24:35;5.20;99.90
30336;DHT22;17142;47.990;7.846;2023-01-15T14:30:11;5.10;99.90
30336;DHT22;17142;47.990;7.846;2023-01-15T14:35:42;5.20;99.90
30336;DHT22;17142;47.990;7.846;2023-01-15T14:38:16;5.30;99.90
30336;DHT22;17142;47.990;7.846;2023-01-15T14:40:59;5.40;99.90
30336;DHT22;17142;47.990;7.846;2023-01-15T14:43:31;5.50;99.90
30336;DHT22;17142;47.990;7.846;2023-01-15T14:46:31;5.40;99.90
30336;DHT22;17142;47.990;7.846;2023-01-15T14:48:59;5.30;99.90
30336;DHT22;17142;47.990;7.846;2023-01-15T14:51:27;5.20;99.90
30336;DHT22;17142;47.990;7.846;2023-01-15T14:54:09;5.00;99.90
30336;DHT22;17142;47.990;7.846;2023-01-15T14:56:43;4.90;99.90
30336;DHT22;17142;47.990;7.846;2023-01-15T14:59:12;4.70;99.90
30336;DHT22;17142;47.990;7.846;2023-01-15T15:01:53;4.70;99.90
30336;DHT22;17142;47.990;7.846;2023-01-15T15:04:43;4.60;99.90
30336;DHT22;17142;47.990;7.846;2023-01-15T15:07:13;4.50;99.90
30336;DHT22;17142;47.990;7.846;2023-01-15T15:12:30;4.40;99.90
30336;DHT22;17142;47.990;7.846;2023-01-15T15:20:16;4.30;99.90
30336;DHT22;17142;47.990;7.846;2023-01-15T15:22:45;4.20;99.90
30336;DHT22;17142;47.990;7.846;2023-01-15T15:25:18;4.30;99.90
30336;DHT22;17142;47.990;7.846;2023-01-15T15:27:45;4.20;99.90
30336;DHT22;17142;47.990;7.846;2023-01-15T15:30:11;4.20;99.90
30336;DHT22;17142;47.990;7.846;2023-01-15T15:32:40;4.20;99.90
30336;DHT22;17142;47.990;7.846;2023-01-15T15:35:24;4.20;99.90
30336;DHT22;17142;47.990;7.846;2023-01-15T15:37:51;4.10;99.90
30336;DHT22;17142;47.990;7.846;2023-01-15T15:40:23;4.10;99.90
30336;DHT22;17142;47.990;7.846;2023-01-15T15:42:57;4.20;99.90
30336;DHT22;17142;47.990;7.846;2023-01-15T15:45:53;4.20;99.90
30336;DHT22;17142;47.990;7.846;2023-01-15T15:48:38;4.20;99.90
30336;DHT22;17142;47.990;7.846;2023-01-15T15:57:03;4.40;99.90
30336;DHT22;17142;47.990;7.846;2023-01-15T15:59:50;4.40;99.90
30336;DHT22;17142;47.990;7.846;2023-01-15T16:04:58;4.40;99.90
30336;DHT22;17142;47.990;7.846;2023-01-15T16:07:26;4.30;99.90
30336;DHT22;17142;47.990;7.846;2023-01-15T16:09:57;4.30;99.90
30336;DHT22;17142;47.990;7.846;2023-01-15T16:12:28;4.20;99.90
30336;DHT22;17142;47.990;7.846;2023-01-15T16:14:58;4.20;99.90
30336;DHT22;17142;47.990;7.846;2023-01-15T16:17:25;4.20;99.90
30336;DHT22;17142;47.990;7.846;2023-01-15T16:19:55;4.00;99.90
30336;DHT22;17142;47.990;7.846;2023-01-15T16:22:22;4.00;99.90
30336;DHT22;17142;47.990;7.846;2023-01-15T16:24:56;3.90;99.90
30336;DHT22;17142;47.990;7.846;2023-01-15T16:27:23;3.80;99.90
30336;DHT22;17142;47.990;7.846;2023-01-15T16:29:53;3.80;99.90
30336;DHT22;17142;47.990;7.846;2023-01-15T16:32:25;3.70;99.90
30336;DHT22;17142;47.990;7.846;2023-01-15T16:35:13;3.70;99.90
30336;DHT22;17142;47.990;7.846;2023-01-15T16:37:39;3.70;99.90
30336;DHT22;17142;47.990;7.846;2023-01-15T16:40:06;3.80;99.90
30336;DHT22;17142;47.990;7.846;2023-01-15T16:42:37;3.80;99.90
30336;DHT22;17142;47.990;7.846;2023-01-15T16:45:24;3.90;99.90
30336;DHT22;17142;47.990;7.846;2023-01-15T16:48:08;3.90;99.90
30336;DHT22;17142;47.990;7.846;2023-01-15T16:50:41;3.90;99.90
30336;DHT22;17142;47.990;7.846;2023-01-15T16:53:28;3.90;99.90
30336;DHT22;17142;47.990;7.846;2023-01-15T16:55:54;3.80;99.90
30336;DHT22;17142;47.990;7.846;2023-01-15T16:58:35;3.80;99.90
30336;DHT22;17142;47.990;7.846;2023-01-15T17:01:02;3.80;99.90
30336;DHT22;17142;47.990;7.846;2023-01-15T17:03:49;3.70;99.90
30336;DHT22;17142;47.990;7.846;2023-01-15T17:06:23;3.80;99.90
30336;DHT22;17142;47.990;7.846;2023-01-15T17:08:50;4.00;99.90
30336;DHT22;17142;47.990;7.846;2023-01-15T17:11:22;3.90;99.90
30336;DHT22;17142;47.990;7.846;2023-01-15T17:13:49;3.90;99.90
30336;DHT22;17142;47.990;7.846;2023-01-15T17:16:22;3.90;99.90
30336;DHT22;17142;47.990;7.846;2023-01-15T17:18:50;3.90;99.90
30336;DHT22;17142;47.990;7.846;2023-01-15T17:21:22;3.90;99.90
30336;DHT22;17142;47.990;7.846;2023-01-15T17:23:52;4.00;99.90
30336;DHT22;17142;47.990;7.846;2023-01-15T17:26:21;4.00;99.90
30336;DHT22;17142;47.990;7.846;2023-01-15T17:28:47;4.00;99.90
30336;DHT22;17142;47.990;7.846;2023-01-15T17:33:53;4.10;99.90
30336;DHT22;17142;47.990;7.846;2023-01-15T17:36:20;4.20;99.90
30336;DHT22;17142;47.990;7.846;2023-01-15T17:38:46;4.40;99.90
30336;DHT22;17142;47.990;7.846;2023-01-15T17:41:16;4.30;99.90
30336;DHT22;17142;47.990;7.846;2023-01-15T17:43:42;4.30;99.90
30336;DHT22;17142;47.990;7.846;2023-01-15T17:46:07;4.30;99.90
30336;DHT22;17142;47.990;7.846;2023-01-15T17:48:33;4.40;99.90
30336;DHT22;17142;47.990;7.846;2023-01-15T17:51:03;4.70;99.90
30336;DHT22;17142;47.990;7.846;2023-01-15T17:53:29;4.70;99.90
30336;DHT22;17142;47.990;7.846;2023-01-15T17:55:59;4.70;99.90
30336;DHT22;17142;47.990;7.846;2023-01-15T17:58:46;4.60;99.90
30336;DHT22;17142;47.990;7.846;2023-01-15T18:01:35;4.50;99.90
30336;DHT22;17142;47.990;7.846;2023-01-15T18:07:19;4.30;99.90
30336;DHT22;17142;47.990;7.846;2023-01-15T18:09:48;4.30;99.90
30336;DHT22;17142;47.990;7.846;2023-01-15T18:12:17;4.30;99.90
30336;DHT22;17142;47.990;7.846;2023-01-15T18:14:43;4.30;99.90
30336;DHT22;17142;47.990;7.846;2023-01-15T18:17:08;4.30;99.90
30336;DHT22;17142;47.990;7.846;2023-01-15T18:19:35;4.20;99.90
30336;DHT22;17142;47.990;7.846;2023-01-15T18:22:01;4.30;99.90
30336;DHT22;17142;47.990;7.846;2023-01-15T18:24:27;4.40;99.90
30336;DHT22;17142;47.990;7.846;2023-01-15T18:26:52;4.40;99.90
30336;DHT22;17142;47.990;7.846;2023-01-15T18:29:20;4.40;99.90
30336;DHT22;17142;47.990;7.846;2023-01-15T18:31:45;4.30;99.90
30336;DHT22;17142;47.990;7.846;2023-01-15T18:34:11;4.30;99.90
30336;DHT22;17142;47.990;7.846;2023-01-15T18:36:37;4.30;99.90
30336;DHT22;17142;47.990;7.846;2023-01-15T18:39:02;4.40;99.90
30336;DHT22;17142;47.990;7.846;2023-01-15T18:41:34;4.40;99.90
30336;DHT22;17142;47.990;7.846;2023-01-15T18:44:03;4.50;99.90
30336;DHT22;17142;47.990;7.846;2023-01-15T18:46:51;4.60;99.90
30336;DHT22;17142;47.990;7.846;2023-01-15T18:49:17;4.60;99.90
30336;DHT22;17142;47.990;7.846;2023-01-15T18:51:47;4.60;99.90
30336;DHT22;17142;47.990;7.846;2023-01-15T18:54:33;4.60;99.90
30336;DHT22;17142;47.990;7.846;2023-01-15T18:57:01;4.60;99.90
30336;DHT22;17142;47.990;7.846;2023-01-15T18:59:26;4.60;99.90
30336;DHT22;17142;47.990;7.846;2023-01-15T19:01:52;4.70;99.90
30336;DHT22;17142;47.990;7.846;2023-01-15T19:04:20;4.60;99.90
30336;DHT22;17142;47.990;7.846;2023-01-15T19:06:46;4.50;99.90
30336;DHT22;17142;47.990;7.846;2023-01-15T19:09:14;4.60;99.90
30336;DHT22;17142;47.990;7.846;2023-01-15T19:11:41;4.60;99.90
30336;DHT22;17142;47.990;7.846;2023-01-15T19:14:07;4.80;99.90
30336;DHT22;17142;47.990;7.846;2023-01-15T19:16:52;4.80;99.90
30336;DHT22;17142;47.990;7.846;2023-01-15T19:19:36;4.80;99.90
30336;DHT22;17142;47.990;7.846;2023-01-15T19:22:07;4.70;99.90
30336;DHT22;17142;47.990;7.846;2023-01-15T19:24:51;4.70;99.90
30336;DHT22;17142;47.990;7.846;2023-01-15T19:27:16;4.80;99.90
30336;DHT22;17142;47.990;7.846;2023-01-15T19:29:44;4.70;99.90
30336;DHT22;17142;47.990;7.846;2023-01-15T19:32:10;4.70;99.90
30336;DHT22;17142;47.990;7.846;2023-01-15T19:34:36;4.60;99.90
30336;DHT22;17142;47.990;7.846;2023-01-15T19:37:01;4.60;99.90
30336;DHT22;17142;47.990;7.846;2023-01-15T19:39:28;4.60;99.90
30336;DHT22;17142;47.990;7.846;2023-01-15T19:41:57;4.50;99.90
30336;DHT22;17142;47.990;7.846;2023-01-15T19:44:41;4.50;99.90
30336;DHT22;17142;47.990;7.846;2023-01-15T19:47:30;4.50;99.90
30336;DHT22;17142;47.990;7.846;2023-01-15T19:50:18;4.50;99.90
30336;DHT22;17142;47.990;7.846;2023-01-15T19:52:52;4.60;99.90
30336;DHT22;17142;47.990;7.846;2023-01-15T19:55:18;4.70;99.90
30336;DHT22;17142;47.990;7.846;2023-01-15T19:57:54;4.70;99.90
30336;DHT22;17142;47.990;7.846;2023-01-15T20:00:20;4.70;99.90
30336;DHT22;17142;47.990;7.846;2023-01-15T20:02:46;4.80;99.90
30336;DHT22;17142;47.990;7.846;2023-01-15T20:05:13;4.70;99.90
30336;DHT22;17142;47.990;7.846;2023-01-15T20:07:40;4.70;99.90
30336;DHT22;17142;47.990;7.846;2023-01-15T20:10:07;4.80;99.90
30336;DHT22;17142;47.990;7.846;2023-01-15T20:12:36;4.80;99.90
30336;DHT22;17142;47.990;7.846;2023-01-15T20:15:20;4.80;99.90
30336;DHT22;17142;47.990;7.846;2023-01-15T20:17:48;4.80;99.90
30336;DHT22;17142;47.990;7.846;2023-01-15T20:20:14;4.80;99.90
30336;DHT22;17142;47.990;7.846;2023-01-15T20:22:40;4.90;99.90
30336;DHT22;17142;47.990;7.846;2023-01-15T20:25:06;5.00;99.90
30336;DHT22;17142;47.990;7.846;2023-01-15T20:27:34;5.10;99.90
30336;DHT22;17142;47.990;7.846;2023-01-15T20:30:06;5.10;99.90
30336;DHT22;17142;47.990;7.846;2023-01-15T20:32:35;5.10;99.90
30336;DHT22;17142;47.990;7.846;2023-01-15T20:35:01;5.10;99.90
30336;DHT22;17142;47.990;7.846;2023-01-15T20:37:27;5.10;99.90
30336;DHT22;17142;47.990;7.846;2023-01-15T20:39:53;5.10;99.90
30336;DHT22;17142;47.990;7.846;2023-01-15T20:42:19;5.20;99.90
30336;DHT22;17142;47.990;7.846;2023-01-15T20:45:21;5.30;99.90
30336;DHT22;17142;47.990;7.846;2023-01-15T20:47:47;5.40;99.90
30336;DHT22;17142;47.990;7.846;2023-01-15T20:50:34;5.40;99.90
30336;DHT22;17142;47.990;7.846;2023-01-15T20:53:04;5.30;99.90
30336;DHT22;17142;47.990;7.846;2023-01-15T20:55:34;5.20;99.90
30336;DHT22;17142;47.990;7.846;2023-01-15T20:58:01;5.10;99.90
30336;DHT22;17142;47.990;7.846;2023-01-15T21:00:28;5.10;99.90
30336;DHT22;17142;47.990;7.846;2023-01-15T21:02:54;5.10;99.90
30336;DHT22;17142;47.990;7.846;2023-01-15T21:05:25;5.20;99.90
30336;DHT22;17142;47.990;7.846;2023-01-15T21:07:51;5.20;99.90
30336;DHT22;17142;47.990;7.846;2023-01-15T21:10:17;5.30;99.90
30336;DHT22;17142;47.990;7.846;2023-01-15T21:12:46;5.40;99.90
30336;DHT22;17142;47.990;7.846;2023-01-15T21:15:11;5.30;99.90
30336;DHT22;17142;47.990;7.846;2023-01-15T21:17:38;5.20;99.90
30336;DHT22;17142;47.990;7.846;2023-01-15T21:20:08;5.20;99.90
30336;DHT22;17142;47.990;7.846;2023-01-15T21:22:36;5.30;99.90
30336;DHT22;17142;47.990;7.846;2023-01-15T21:25:02;5.40;99.90
30336;DHT22;17142;47.990;7.846;2023-01-15T21:27:28;5.50;99.90
30336;DHT22;17142;47.990;7.846;2023-01-15T21:29:56;5.50;99.90
30336;DHT22;17142;47.990;7.846;2023-01-15T21:32:23;5.60;99.90
30336;DHT22;17142;47.990;7.846;2023-01-15T21:34:49;5.60;99.90
30336;DHT22;17142;47.990;7.846;2023-01-15T21:37:15;5.50;99.90
30336;DHT22;17142;47.990;7.846;2023-01-15T21:39:41;5.50;99.90
